Terminal Aerodrome Forecast
Issued by NWS

Home | Current Version | Previous Version | Text Only | Print | Product List | Glossary Off
Versions: 1 2 3 4 5 6 7 8 9 10 11 12 13 14 15 16 17 18 19 20 21 22 23 24 25 26 27 28

000
FTUS41 KCLE 151100
TAFFDY
TAF
KFDY 151120Z 1512/1612 00000KT P6SM SCT100
     FM151300 20005KT P6SM SCT100 BKN250
     FM151700 22008KT P6SM SCT045 OVC080
     FM152100 25008KT P6SM -RA OVC045
     FM152300 27008KT 4SM -RA BR OVC030
     FM160400 32004KT 4SM BR OVC015
     FM160600 31005KT 4SM BR OVC025
     FM160800 33005KT P6SM OVC025=

USA.gov is the U.S. government's official web portal to all federal, state and local government web resources and services.